createdAt,value
2017-01-25T00:00:55.385Z,1024.14
2017-01-25T00:05:51.586Z,1024.02
2017-01-25T00:10:47.821Z,1024.25
2017-01-25T00:15:44.272Z,1024.06
2017-01-25T00:20:40.128Z,1024.18
2017-01-25T00:25:36.592Z,1024.08
2017-01-25T00:30:32.835Z,1024.14
2017-01-25T00:35:29.029Z,1024.22
2017-01-25T00:40:25.280Z,1024.23
2017-01-25T00:45:21.727Z,1024.25
2017-01-25T00:50:17.875Z,1024.27
2017-01-25T00:55:14.162Z,1024.31
2017-01-25T01:00:10.563Z,1024.27
2017-01-25T01:05:06.713Z,1024.35
2017-01-25T01:10:03.686Z,1024.41
2017-01-25T01:14:59.984Z,1024.35
2017-01-25T01:19:57.074Z,1024.43
2017-01-25T01:24:54.021Z,1024.32
2017-01-25T01:29:50.342Z,1024.33
2017-01-25T01:34:46.367Z,1024.32
2017-01-25T01:39:42.799Z,1024.24
2017-01-25T01:44:40.007Z,1024.16
2017-01-25T01:49:36.117Z,1024.08
2017-01-25T01:54:32.498Z,1024.14
2017-01-25T01:59:28.961Z,1024.10
2017-01-25T02:04:25.236Z,1024.09
2017-01-25T02:09:21.656Z,1024.11
2017-01-25T02:14:17.933Z,1024.31
2017-01-25T02:19:14.110Z,1024.42
2017-01-25T02:24:09.904Z,1024.47
2017-01-25T02:29:06.492Z,1024.40
2017-01-25T02:34:03.536Z,1024.38
2017-01-25T02:39:00.459Z,1024.47
2017-01-25T02:43:56.810Z,1024.44
2017-01-25T02:48:53.530Z,1024.38
2017-01-25T02:53:49.863Z,1024.35
2017-01-25T02:58:46.209Z,1024.28
2017-01-25T03:03:42.492Z,1024.34
2017-01-25T03:08:38.685Z,1024.29
2017-01-25T03:13:35.028Z,1024.22
2017-01-25T03:18:32.232Z,1024.22
2017-01-25T03:23:28.371Z,1024.22
2017-01-25T03:28:24.527Z,1024.24
2017-01-25T03:33:20.879Z,1024.27
2017-01-25T03:38:17.663Z,1024.20
2017-01-25T03:43:14.041Z,1024.25
2017-01-25T03:48:10.361Z,1024.27
2017-01-25T03:53:06.515Z,1024.27
2017-01-25T03:58:02.820Z,1024.33
2017-01-25T04:02:59.168Z,1024.19
2017-01-25T04:07:55.619Z,1024.10
2017-01-25T04:12:51.949Z,1024.26
2017-01-25T04:17:48.537Z,1024.29
2017-01-25T04:22:44.663Z,1024.39
2017-01-25T04:27:41.029Z,1024.44
2017-01-25T04:32:37.495Z,1024.39
2017-01-25T04:37:33.851Z,1024.44
2017-01-25T04:42:30.205Z,1024.59
2017-01-25T04:47:26.308Z,1024.63
2017-01-25T04:52:22.566Z,1024.48
2017-01-25T04:57:19.967Z,1024.65
2017-01-25T05:02:15.841Z,1024.59
2017-01-25T05:07:12.138Z,1024.56
2017-01-25T05:12:08.870Z,1024.61
2017-01-25T05:17:05.962Z,1024.49
2017-01-25T05:22:02.131Z,1024.59
2017-01-25T05:26:58.582Z,1024.52
2017-01-25T05:31:55.108Z,1024.61
2017-01-25T05:36:51.439Z,1024.66
2017-01-25T05:41:47.832Z,1024.62
2017-01-25T05:46:44.338Z,1024.69
2017-01-25T05:51:40.487Z,1024.66
2017-01-25T05:56:36.648Z,1024.67
2017-01-25T06:01:32.978Z,1024.64
2017-01-25T06:06:29.198Z,1024.65
2017-01-25T06:11:25.606Z,1024.74
2017-01-25T06:16:21.671Z,1024.77
2017-01-25T06:21:18.025Z,1024.70
2017-01-25T06:26:14.268Z,1024.77
2017-01-25T06:31:11.449Z,1024.78
2017-01-25T06:36:07.774Z,1024.78
2017-01-25T06:41:03.996Z,1024.83
2017-01-25T06:46:00.100Z,1024.91
2017-01-25T06:50:56.344Z,1024.92
2017-01-25T06:55:52.691Z,1024.97
2017-01-25T07:00:48.805Z,1024.97
2017-01-25T07:05:45.029Z,1025.18
2017-01-25T07:10:41.342Z,1025.10
2017-01-25T07:15:37.567Z,1025.16
2017-01-25T07:20:34.587Z,1025.26
2017-01-25T07:25:30.753Z,1025.18
2017-01-25T07:30:27.151Z,1025.29
2017-01-25T07:35:23.856Z,1025.36
2017-01-25T07:40:19.829Z,1025.36
2017-01-25T07:45:16.364Z,1025.35
2017-01-25T07:50:13.428Z,1025.43
2017-01-25T07:55:09.898Z,1025.26
2017-01-25T08:00:06.246Z,1025.35
2017-01-25T08:05:02.445Z,1025.35
2017-01-25T08:09:58.712Z,1025.44
2017-01-25T08:14:54.937Z,1025.51
2017-01-25T08:19:51.196Z,1025.67
2017-01-25T08:24:47.589Z,1025.75
2017-01-25T08:29:43.841Z,1025.76
2017-01-25T08:34:41.622Z,1025.63
2017-01-25T08:39:37.801Z,1025.61
2017-01-25T08:44:33.546Z,1025.67
2017-01-25T08:49:30.774Z,1025.78
2017-01-25T08:54:26.858Z,1025.86
2017-01-25T08:59:23.252Z,1025.82
2017-01-25T09:04:19.410Z,1025.87
2017-01-25T09:09:15.547Z,1025.73
2017-01-25T09:14:12.103Z,1025.78
2017-01-25T09:19:09.101Z,1025.79
2017-01-25T09:24:06.097Z,1025.73
2017-01-25T09:29:02.645Z,1025.75
2017-01-25T09:33:59.203Z,1025.68
2017-01-25T09:38:56.402Z,1025.80
2017-01-25T09:43:53.905Z,1025.69
2017-01-25T09:48:50.067Z,1025.69
2017-01-25T09:53:46.313Z,1025.78
2017-01-25T09:58:42.898Z,1025.78
2017-01-25T10:03:39.309Z,1025.91
2017-01-25T10:08:35.947Z,1025.77
2017-01-25T10:13:32.428Z,1025.75
2017-01-25T10:18:30.011Z,1025.59
2017-01-25T10:23:26.299Z,1025.56
2017-01-25T10:28:23.561Z,1025.56
2017-01-25T10:33:19.927Z,1025.61
2017-01-25T10:38:16.225Z,1025.52
2017-01-25T10:43:12.749Z,1025.43
2017-01-25T10:48:09.184Z,1025.35
2017-01-25T10:53:06.210Z,1025.18
2017-01-25T10:58:02.724Z,1025.27
2017-01-25T11:02:59.196Z,1025.23
2017-01-25T11:07:55.684Z,1025.21
2017-01-25T11:12:52.897Z,1025.22
2017-01-25T11:17:49.257Z,1025.12
2017-01-25T11:22:45.497Z,1025.05
2017-01-25T11:27:41.944Z,1024.96
2017-01-25T11:32:38.177Z,1024.93
2017-01-25T11:37:34.437Z,1024.80
2017-01-25T11:42:30.693Z,1024.82
2017-01-25T11:47:27.485Z,1024.70
2017-01-25T11:52:23.966Z,1024.60
2017-01-25T11:57:20.571Z,1024.53
2017-01-25T12:02:16.967Z,1024.43
2017-01-25T12:07:13.283Z,1024.38
2017-01-25T12:12:09.605Z,1024.40
2017-01-25T12:17:05.664Z,1024.30
2017-01-25T12:22:02.117Z,1024.25
2017-01-25T12:26:58.669Z,1024.17
2017-01-25T12:31:55.194Z,1024.22
2017-01-25T12:36:51.698Z,1024.04
2017-01-25T12:41:48.351Z,1024.05
2017-01-25T12:46:45.044Z,1023.95
2017-01-25T12:51:41.359Z,1023.86
2017-01-25T12:56:37.628Z,1023.89
2017-01-25T13:01:33.950Z,1023.88
2017-01-25T13:06:30.437Z,1023.92
2017-01-25T13:11:26.726Z,1023.80
2017-01-25T13:16:23.055Z,1023.81
2017-01-25T13:21:19.347Z,1023.82
2017-01-25T13:26:16.506Z,1023.78
2017-01-25T13:31:12.656Z,1023.72
2017-01-25T13:36:08.803Z,1023.70
2017-01-25T13:41:05.832Z,1023.69
2017-01-25T13:46:02.859Z,1023.68
2017-01-25T13:50:59.191Z,1023.72
2017-01-25T13:55:55.781Z,1023.61
2017-01-25T14:00:51.986Z,1023.58
2017-01-25T14:05:48.522Z,1023.52
2017-01-25T14:10:44.943Z,1023.47
2017-01-25T14:15:41.210Z,1023.41
2017-01-25T14:20:37.543Z,1023.42
2017-01-25T14:25:33.923Z,1023.39
2017-01-25T14:30:30.261Z,1023.35
2017-01-25T14:35:26.733Z,1023.32
2017-01-25T14:40:23.093Z,1023.29
2017-01-25T14:45:19.886Z,1023.22
2017-01-25T14:50:17.207Z,1023.20
2017-01-25T14:55:13.113Z,1023.14
2017-01-25T15:00:09.633Z,1023.15
2017-01-25T15:05:05.972Z,1023.05
2017-01-25T15:10:02.303Z,1023.10
2017-01-25T15:14:58.532Z,1023.15
2017-01-25T15:19:54.914Z,1023.09
2017-01-25T15:24:51.170Z,1023.09
2017-01-25T15:29:47.587Z,1023.22
2017-01-25T15:34:44.526Z,1023.20
2017-01-25T15:39:40.536Z,1023.25
2017-01-25T15:44:37.452Z,1023.30
2017-01-25T15:49:33.405Z,1023.34
2017-01-25T15:54:29.555Z,1023.45
2017-01-25T15:59:25.781Z,1023.29
2017-01-25T16:04:23.244Z,1023.25
2017-01-25T16:09:19.963Z,1023.19
2017-01-25T16:14:16.315Z,1023.27
2017-01-25T16:19:12.441Z,1023.29
2017-01-25T16:24:08.561Z,1023.32
2017-01-25T16:29:04.713Z,1023.34
2017-01-25T16:34:01.022Z,1023.22
2017-01-25T16:38:57.275Z,1023.24
2017-01-25T16:43:53.463Z,1023.16
2017-01-25T16:48:50.098Z,1023.22
2017-01-25T16:53:46.516Z,1023.20
2017-01-25T16:58:42.676Z,1023.29
2017-01-25T17:03:39.122Z,1023.24
2017-01-25T17:08:36.289Z,1023.33
2017-01-25T17:13:32.733Z,1023.33
2017-01-25T17:18:29.003Z,1023.32
2017-01-25T17:23:25.812Z,1023.31
2017-01-25T17:28:22.212Z,1023.35
2017-01-25T17:33:18.213Z,1023.29
2017-01-25T17:38:14.449Z,1023.33
2017-01-25T17:43:10.672Z,1023.24
2017-01-25T17:48:06.799Z,1023.30
2017-01-25T17:53:03.365Z,1023.25
2017-01-25T17:57:59.636Z,1023.28
2017-01-25T18:02:55.603Z,1023.17
2017-01-25T18:07:51.751Z,1023.28
2017-01-25T18:12:47.844Z,1023.34
2017-01-25T18:17:44.321Z,1023.38
2017-01-25T18:22:40.647Z,1023.43
2017-01-25T18:27:37.059Z,1023.35
2017-01-25T18:32:33.559Z,1023.38
2017-01-25T18:37:29.775Z,1023.21
2017-01-25T18:42:27.398Z,1023.22
2017-01-25T18:47:23.439Z,1023.23
2017-01-25T18:52:19.614Z,1023.18
2017-01-25T18:57:16.602Z,1023.17
2017-01-25T19:02:12.754Z,1023.23
2017-01-25T19:07:09.716Z,1023.18
2017-01-25T19:12:06.736Z,1023.10
2017-01-25T19:17:02.797Z,1023.26
2017-01-25T19:21:59.199Z,1023.16
2017-01-25T19:26:55.606Z,1023.23
2017-01-25T19:31:52.023Z,1023.27
2017-01-25T19:36:48.544Z,1023.22
2017-01-25T19:41:44.534Z,1023.14
2017-01-25T19:46:41.191Z,1023.25
2017-01-25T19:51:37.471Z,1023.18
2017-01-25T20:01:35.460Z,1023.35
2017-01-25T20:06:31.726Z,1023.32
2017-01-25T20:11:32.008Z,1023.29
2017-01-25T20:16:27.405Z,1023.32
2017-01-25T20:21:23.669Z,1023.29
2017-01-25T20:26:20.158Z,1023.22
2017-01-25T20:31:16.930Z,1023.14
2017-01-25T20:36:13.292Z,1023.12
2017-01-25T20:41:09.443Z,1023.10
2017-01-25T20:46:06.484Z,1023.15
2017-01-25T20:51:02.867Z,1023.14
2017-01-25T20:55:59.178Z,1023.10
2017-01-25T21:00:56.188Z,1023.12
2017-01-25T21:05:52.404Z,1023.06
2017-01-25T21:10:48.837Z,1023.06
2017-01-25T21:15:45.486Z,1023.07
2017-01-25T21:20:41.683Z,1023.06
2017-01-25T21:25:37.828Z,1023.10
2017-01-25T21:30:34.866Z,1023.09
2017-01-25T21:35:31.142Z,1023.03
2017-01-25T21:40:27.605Z,1023.03
2017-01-25T21:45:23.597Z,1023.05
2017-01-25T21:50:20.976Z,1023.12
2017-01-25T21:55:16.877Z,1023.01
2017-01-25T22:00:13.256Z,1022.97
2017-01-25T22:05:10.442Z,1022.97
2017-01-25T22:10:07.497Z,1022.98
2017-01-25T22:15:03.772Z,1023.11
2017-01-25T22:20:00.853Z,1022.96
2017-01-25T22:24:57.148Z,1023.02
2017-01-25T22:29:54.206Z,1023.00
2017-01-25T22:34:51.383Z,1022.95
2017-01-25T22:39:47.986Z,1023.05
2017-01-25T22:44:45.194Z,1023.07
2017-01-25T22:49:41.347Z,1023.04
2017-01-25T22:54:37.896Z,1022.99
2017-01-25T22:59:34.226Z,1022.88
2017-01-25T23:04:31.460Z,1022.93
2017-01-25T23:09:27.877Z,1023.00
2017-01-25T23:14:24.378Z,1022.92
2017-01-25T23:19:20.911Z,1022.89
2017-01-25T23:24:17.399Z,1022.89
2017-01-25T23:29:13.651Z,1022.86
2017-01-25T23:34:11.952Z,1022.84
2017-01-25T23:39:08.139Z,1022.87
2017-01-25T23:44:04.211Z,1022.88
2017-01-25T23:49:01.345Z,1022.89
2017-01-25T23:53:57.843Z,1022.79
2017-01-25T23:58:53.939Z,1022.77
